sensor_id;sensor_type;location;lat;lon;timestamp;P1;durP1;ratioP1;P2;durP2;ratioP2
70126;SDS011;57491;42.694;23.314;2023-07-31T00:02:03;3.90;;;3.55;;
70126;SDS011;57491;42.694;23.314;2023-07-31T00:04:31;5.97;;;3.80;;
70126;SDS011;57491;42.694;23.314;2023-07-31T00:06:59;4.35;;;3.70;;
70126;SDS011;57491;42.694;23.314;2023-07-31T00:09:26;4.22;;;3.80;;
70126;SDS011;57491;42.694;23.314;2023-07-31T00:11:53;5.88;;;3.70;;
70126;SDS011;57491;42.694;23.314;2023-07-31T00:14:20;5.50;;;3.67;;
70126;SDS011;57491;42.694;23.314;2023-07-31T00:16:47;5.55;;;3.53;;
70126;SDS011;57491;42.694;23.314;2023-07-31T00:19:14;4.78;;;4.28;;
70126;SDS011;57491;42.694;23.314;2023-07-31T00:21:41;4.85;;;4.32;;
70126;SDS011;57491;42.694;23.314;2023-07-31T00:24:10;4.45;;;3.85;;
70126;SDS011;57491;42.694;23.314;2023-07-31T00:26:37;4.40;;;4.00;;
70126;SDS011;57491;42.694;23.314;2023-07-31T00:29:04;4.90;;;4.40;;
70126;SDS011;57491;42.694;23.314;2023-07-31T00:33:59;4.93;;;4.40;;
70126;SDS011;57491;42.694;23.314;2023-07-31T00:36:25;5.35;;;4.82;;
70126;SDS011;57491;42.694;23.314;2023-07-31T00:38:53;4.85;;;4.25;;
70126;SDS011;57491;42.694;23.314;2023-07-31T00:41:21;5.10;;;4.60;;
70126;SDS011;57491;42.694;23.314;2023-07-31T00:43:48;6.20;;;4.82;;
70126;SDS011;57491;42.694;23.314;2023-07-31T00:46:15;5.82;;;4.72;;
70126;SDS011;57491;42.694;23.314;2023-07-31T00:48:42;6.15;;;5.18;;
70126;SDS011;57491;42.694;23.314;2023-07-31T00:51:10;6.30;;;5.70;;
70126;SDS011;57491;42.694;23.314;2023-07-31T00:53:37;6.53;;;5.75;;
70126;SDS011;57491;42.694;23.314;2023-07-31T00:56:05;6.88;;;6.15;;
70126;SDS011;57491;42.694;23.314;2023-07-31T00:58:34;8.75;;;7.85;;
70126;SDS011;57491;42.694;23.314;2023-07-31T01:01:01;10.18;;;7.35;;
70126;SDS011;57491;42.694;23.314;2023-07-31T01:03:28;10.25;;;9.15;;
70126;SDS011;57491;42.694;23.314;2023-07-31T01:05:59;9.23;;;8.35;;
70126;SDS011;57491;42.694;23.314;2023-07-31T01:08:35;10.25;;;8.38;;
70126;SDS011;57491;42.694;23.314;2023-07-31T01:11:07;10.65;;;7.97;;
70126;SDS011;57491;42.694;23.314;2023-07-31T01:13:42;10.70;;;9.00;;
70126;SDS011;57491;42.694;23.314;2023-07-31T01:16:10;10.80;;;8.90;;
70126;SDS011;57491;42.694;23.314;2023-07-31T01:18:37;12.38;;;9.57;;
70126;SDS011;57491;42.694;23.314;2023-07-31T01:21:07;11.15;;;9.70;;
70126;SDS011;57491;42.694;23.314;2023-07-31T01:26:49;13.27;;;11.85;;
70126;SDS011;57491;42.694;23.314;2023-07-31T01:29:23;13.63;;;11.13;;
70126;SDS011;57491;42.694;23.314;2023-07-31T01:31:59;13.00;;;11.68;;
70126;SDS011;57491;42.694;23.314;2023-07-31T01:34:29;16.08;;;13.00;;
70126;SDS011;57491;42.694;23.314;2023-07-31T01:36:56;15.77;;;13.82;;
70126;SDS011;57491;42.694;23.314;2023-07-31T01:41:52;22.42;;;17.02;;
70126;SDS011;57491;42.694;23.314;2023-07-31T01:44:19;21.48;;;17.48;;
70126;SDS011;57491;42.694;23.314;2023-07-31T01:46:46;20.33;;;17.17;;
70126;SDS011;57491;42.694;23.314;2023-07-31T01:49:13;23.92;;;18.95;;
70126;SDS011;57491;42.694;23.314;2023-07-31T01:51:40;24.00;;;20.05;;
70126;SDS011;57491;42.694;23.314;2023-07-31T01:54:07;28.95;;;23.17;;
70126;SDS011;57491;42.694;23.314;2023-07-31T01:56:34;26.45;;;22.08;;
70126;SDS011;57491;42.694;23.314;2023-07-31T01:59:03;25.90;;;20.38;;
70126;SDS011;57491;42.694;23.314;2023-07-31T02:01:30;22.95;;;19.30;;
70126;SDS011;57491;42.694;23.314;2023-07-31T02:03:57;28.05;;;19.85;;
70126;SDS011;57491;42.694;23.314;2023-07-31T02:06:24;22.75;;;19.05;;
70126;SDS011;57491;42.694;23.314;2023-07-31T02:08:51;21.38;;;18.45;;
70126;SDS011;57491;42.694;23.314;2023-07-31T02:11:18;27.60;;;18.77;;
70126;SDS011;57491;42.694;23.314;2023-07-31T02:13:45;21.50;;;18.08;;
70126;SDS011;57491;42.694;23.314;2023-07-31T02:18:41;22.63;;;17.90;;
70126;SDS011;57491;42.694;23.314;2023-07-31T02:21:08;23.25;;;17.92;;
70126;SDS011;57491;42.694;23.314;2023-07-31T02:23:35;23.13;;;17.02;;
70126;SDS011;57491;42.694;23.314;2023-07-31T02:26:02;20.52;;;16.90;;
70126;SDS011;57491;42.694;23.314;2023-07-31T02:28:29;22.80;;;19.05;;
70126;SDS011;57491;42.694;23.314;2023-07-31T02:30:56;21.20;;;17.65;;
70126;SDS011;57491;42.694;23.314;2023-07-31T02:33:25;23.02;;;18.02;;
70126;SDS011;57491;42.694;23.314;2023-07-31T02:35:52;23.70;;;18.95;;
70126;SDS011;57491;42.694;23.314;2023-07-31T02:38:19;23.10;;;17.95;;
70126;SDS011;57491;42.694;23.314;2023-07-31T02:40:46;21.85;;;18.00;;
70126;SDS011;57491;42.694;23.314;2023-07-31T02:43:13;24.65;;;19.30;;
70126;SDS011;57491;42.694;23.314;2023-07-31T02:45:40;23.52;;;17.60;;
70126;SDS011;57491;42.694;23.314;2023-07-31T02:48:07;24.55;;;19.65;;
70126;SDS011;57491;42.694;23.314;2023-07-31T02:50:36;25.25;;;19.15;;
70126;SDS011;57491;42.694;23.314;2023-07-31T02:53:03;23.20;;;18.88;;
70126;SDS011;57491;42.694;23.314;2023-07-31T02:55:30;23.25;;;18.85;;
70126;SDS011;57491;42.694;23.314;2023-07-31T02:57:57;20.83;;;18.15;;
70126;SDS011;57491;42.694;23.314;2023-07-31T03:00:24;22.90;;;18.80;;
70126;SDS011;57491;42.694;23.314;2023-07-31T03:02:51;26.05;;;19.48;;
70126;SDS011;57491;42.694;23.314;2023-07-31T03:05:18;25.70;;;19.20;;
70126;SDS011;57491;42.694;23.314;2023-07-31T03:07:47;22.88;;;18.15;;
70126;SDS011;57491;42.694;23.314;2023-07-31T03:10:14;25.20;;;18.67;;
70126;SDS011;57491;42.694;23.314;2023-07-31T03:12:41;24.85;;;18.13;;
70126;SDS011;57491;42.694;23.314;2023-07-31T03:15:09;21.52;;;18.17;;
70126;SDS011;57491;42.694;23.314;2023-07-31T03:17:36;26.38;;;19.63;;
70126;SDS011;57491;42.694;23.314;2023-07-31T03:20:03;25.15;;;19.60;;
70126;SDS011;57491;42.694;23.314;2023-07-31T03:24:59;22.23;;;18.00;;
70126;SDS011;57491;42.694;23.314;2023-07-31T03:27:27;24.15;;;19.05;;
70126;SDS011;57491;42.694;23.314;2023-07-31T03:29:54;25.20;;;20.48;;
70126;SDS011;57491;42.694;23.314;2023-07-31T03:32:21;23.25;;;18.98;;
70126;SDS011;57491;42.694;23.314;2023-07-31T03:34:49;23.33;;;20.03;;
70126;SDS011;57491;42.694;23.314;2023-07-31T03:37:16;24.65;;;19.42;;
70126;SDS011;57491;42.694;23.314;2023-07-31T03:39:43;24.17;;;19.63;;
70126;SDS011;57491;42.694;23.314;2023-07-31T03:42:11;22.50;;;19.80;;
70126;SDS011;57491;42.694;23.314;2023-07-31T03:44:38;23.17;;;18.33;;
70126;SDS011;57491;42.694;23.314;2023-07-31T03:47:05;24.52;;;19.50;;
70126;SDS011;57491;42.694;23.314;2023-07-31T03:49:32;28.50;;;18.98;;
70126;SDS011;57491;42.694;23.314;2023-07-31T03:51:59;27.80;;;20.50;;
70126;SDS011;57491;42.694;23.314;2023-07-31T03:54:26;26.15;;;19.70;;
70126;SDS011;57491;42.694;23.314;2023-07-31T03:56:53;24.60;;;19.48;;
70126;SDS011;57491;42.694;23.314;2023-07-31T03:59:22;24.02;;;19.38;;
70126;SDS011;57491;42.694;23.314;2023-07-31T04:01:49;27.52;;;20.75;;
70126;SDS011;57491;42.694;23.314;2023-07-31T04:04:16;26.05;;;21.15;;
70126;SDS011;57491;42.694;23.314;2023-07-31T04:06:43;28.67;;;21.85;;
70126;SDS011;57491;42.694;23.314;2023-07-31T04:09:10;27.23;;;19.52;;
70126;SDS011;57491;42.694;23.314;2023-07-31T04:11:37;26.00;;;19.83;;
70126;SDS011;57491;42.694;23.314;2023-07-31T04:14:04;29.45;;;21.58;;
70126;SDS011;57491;42.694;23.314;2023-07-31T04:16:33;27.10;;;19.77;;
70126;SDS011;57491;42.694;23.314;2023-07-31T04:19:00;29.13;;;20.70;;
70126;SDS011;57491;42.694;23.314;2023-07-31T04:21:28;25.70;;;19.13;;
70126;SDS011;57491;42.694;23.314;2023-07-31T04:23:55;28.20;;;21.40;;
70126;SDS011;57491;42.694;23.314;2023-07-31T04:26:23;28.98;;;21.23;;
70126;SDS011;57491;42.694;23.314;2023-07-31T04:28:51;25.27;;;20.17;;
70126;SDS011;57491;42.694;23.314;2023-07-31T04:31:18;26.42;;;20.05;;
70126;SDS011;57491;42.694;23.314;2023-07-31T04:33:47;25.83;;;19.50;;
70126;SDS011;57491;42.694;23.314;2023-07-31T04:36:14;26.67;;;19.83;;
70126;SDS011;57491;42.694;23.314;2023-07-31T04:38:41;25.67;;;19.67;;
70126;SDS011;57491;42.694;23.314;2023-07-31T04:41:08;27.35;;;21.02;;
70126;SDS011;57491;42.694;23.314;2023-07-31T04:43:35;27.70;;;19.10;;
70126;SDS011;57491;42.694;23.314;2023-07-31T04:46:04;24.75;;;19.17;;
70126;SDS011;57491;42.694;23.314;2023-07-31T04:48:31;24.55;;;19.35;;
70126;SDS011;57491;42.694;23.314;2023-07-31T04:51:00;27.27;;;20.65;;
70126;SDS011;57491;42.694;23.314;2023-07-31T04:53:27;25.55;;;19.65;;
70126;SDS011;57491;42.694;23.314;2023-07-31T04:55:54;24.45;;;19.52;;
70126;SDS011;57491;42.694;23.314;2023-07-31T04:58:21;25.08;;;19.52;;
70126;SDS011;57491;42.694;23.314;2023-07-31T05:00:48;23.70;;;18.85;;
70126;SDS011;57491;42.694;23.314;2023-07-31T05:03:15;27.05;;;19.55;;
70126;SDS011;57491;42.694;23.314;2023-07-31T05:05:42;22.48;;;18.02;;
70126;SDS011;57491;42.694;23.314;2023-07-31T05:08:11;25.23;;;19.13;;
70126;SDS011;57491;42.694;23.314;2023-07-31T05:10:38;20.90;;;18.33;;
70126;SDS011;57491;42.694;23.314;2023-07-31T05:13:05;19.83;;;17.25;;
70126;SDS011;57491;42.694;23.314;2023-07-31T05:15:32;21.15;;;17.45;;
70126;SDS011;57491;42.694;23.314;2023-07-31T05:17:59;21.27;;;16.17;;
70126;SDS011;57491;42.694;23.314;2023-07-31T05:20:26;19.38;;;15.90;;
70126;SDS011;57491;42.694;23.314;2023-07-31T05:22:53;21.60;;;15.18;;
70126;SDS011;57491;42.694;23.314;2023-07-31T05:25:22;20.08;;;14.88;;
70126;SDS011;57491;42.694;23.314;2023-07-31T05:27:49;25.10;;;15.18;;
70126;SDS011;57491;42.694;23.314;2023-07-31T05:30:16;20.75;;;16.13;;
70126;SDS011;57491;42.694;23.314;2023-07-31T05:35:10;18.23;;;13.60;;
70126;SDS011;57491;42.694;23.314;2023-07-31T05:37:37;16.90;;;14.13;;
70126;SDS011;57491;42.694;23.314;2023-07-31T05:40:05;19.15;;;13.45;;
70126;SDS011;57491;42.694;23.314;2023-07-31T05:42:35;16.20;;;13.40;;
70126;SDS011;57491;42.694;23.314;2023-07-31T05:45:04;14.27;;;12.77;;
70126;SDS011;57491;42.694;23.314;2023-07-31T05:47:32;14.77;;;11.57;;
70126;SDS011;57491;42.694;23.314;2023-07-31T05:49:59;13.50;;;12.10;;
70126;SDS011;57491;42.694;23.314;2023-07-31T05:52:26;14.30;;;12.45;;
70126;SDS011;57491;42.694;23.314;2023-07-31T05:54:55;11.73;;;10.52;;
70126;SDS011;57491;42.694;23.314;2023-07-31T05:57:22;11.82;;;10.48;;
70126;SDS011;57491;42.694;23.314;2023-07-31T05:59:50;11.95;;;10.57;;
70126;SDS011;57491;42.694;23.314;2023-07-31T06:02:18;12.50;;;9.95;;
70126;SDS011;57491;42.694;23.314;2023-07-31T06:04:45;12.88;;;10.23;;
70126;SDS011;57491;42.694;23.314;2023-07-31T06:07:12;14.52;;;10.10;;
70126;SDS011;57491;42.694;23.314;2023-07-31T06:09:39;10.82;;;8.15;;
70126;SDS011;57491;42.694;23.314;2023-07-31T06:12:07;8.15;;;7.35;;
70126;SDS011;57491;42.694;23.314;2023-07-31T06:17:02;10.05;;;8.20;;
70126;SDS011;57491;42.694;23.314;2023-07-31T06:19:30;7.32;;;6.47;;
70126;SDS011;57491;42.694;23.314;2023-07-31T06:21:57;7.68;;;6.30;;
70126;SDS011;57491;42.694;23.314;2023-07-31T06:24:24;6.88;;;6.22;;
70126;SDS011;57491;42.694;23.314;2023-07-31T06:26:51;6.07;;;5.47;;
70126;SDS011;57491;42.694;23.314;2023-07-31T06:29:18;6.80;;;6.10;;
70126;SDS011;57491;42.694;23.314;2023-07-31T06:34:15;6.47;;;5.63;;
70126;SDS011;57491;42.694;23.314;2023-07-31T06:36:41;6.35;;;5.68;;
70126;SDS011;57491;42.694;23.314;2023-07-31T06:39:09;6.13;;;5.43;;
70126;SDS011;57491;42.694;23.314;2023-07-31T06:41:36;7.70;;;5.88;;
70126;SDS011;57491;42.694;23.314;2023-07-31T06:44:03;7.43;;;6.22;;
70126;SDS011;57491;42.694;23.314;2023-07-31T06:46:30;11.85;;;6.18;;
70126;SDS011;57491;42.694;23.314;2023-07-31T06:48:57;6.93;;;5.85;;
70126;SDS011;57491;42.694;23.314;2023-07-31T06:51:28;5.93;;;4.60;;
70126;SDS011;57491;42.694;23.314;2023-07-31T06:53:56;4.63;;;4.22;;
70126;SDS011;57491;42.694;23.314;2023-07-31T06:56:24;6.07;;;4.40;;
70126;SDS011;57491;42.694;23.314;2023-07-31T06:58:51;5.45;;;4.57;;
70126;SDS011;57491;42.694;23.314;2023-07-31T07:01:18;6.18;;;4.82;;
70126;SDS011;57491;42.694;23.314;2023-07-31T07:03:48;5.43;;;4.50;;
70126;SDS011;57491;42.694;23.314;2023-07-31T07:06:16;4.95;;;4.40;;
70126;SDS011;57491;42.694;23.314;2023-07-31T07:08:46;5.82;;;4.47;;
70126;SDS011;57491;42.694;23.314;2023-07-31T07:11:13;6.25;;;4.70;;
70126;SDS011;57491;42.694;23.314;2023-07-31T07:13:40;5.40;;;4.72;;
70126;SDS011;57491;42.694;23.314;2023-07-31T07:16:07;8.45;;;5.03;;
70126;SDS011;57491;42.694;23.314;2023-07-31T07:18:35;6.38;;;4.38;;
70126;SDS011;57491;42.694;23.314;2023-07-31T07:21:02;5.72;;;4.28;;
70126;SDS011;57491;42.694;23.314;2023-07-31T07:23:29;5.90;;;4.20;;
70126;SDS011;57491;42.694;23.314;2023-07-31T07:25:58;6.00;;;4.57;;
70126;SDS011;57491;42.694;23.314;2023-07-31T07:28:25;5.10;;;4.25;;
70126;SDS011;57491;42.694;23.314;2023-07-31T07:30:54;5.07;;;4.22;;
70126;SDS011;57491;42.694;23.314;2023-07-31T07:33:21;7.38;;;4.78;;
70126;SDS011;57491;42.694;23.314;2023-07-31T07:35:48;5.03;;;4.38;;
70126;SDS011;57491;42.694;23.314;2023-07-31T07:38:15;7.13;;;4.40;;
70126;SDS011;57491;42.694;23.314;2023-07-31T07:40:44;4.60;;;4.05;;
70126;SDS011;57491;42.694;23.314;2023-07-31T07:43:13;7.28;;;4.53;;
70126;SDS011;57491;42.694;23.314;2023-07-31T07:45:40;23.45;;;7.15;;
70126;SDS011;57491;42.694;23.314;2023-07-31T07:48:07;5.43;;;4.50;;
70126;SDS011;57491;42.694;23.314;2023-07-31T07:50:34;4.93;;;4.40;;
70126;SDS011;57491;42.694;23.314;2023-07-31T07:53:02;4.28;;;3.88;;
70126;SDS011;57491;42.694;23.314;2023-07-31T07:55:29;6.05;;;3.58;;
70126;SDS011;57491;42.694;23.314;2023-07-31T07:57:56;8.05;;;3.45;;
70126;SDS011;57491;42.694;23.314;2023-07-31T08:02:52;5.18;;;3.97;;
70126;SDS011;57491;42.694;23.314;2023-07-31T08:05:19;6.55;;;4.95;;
70126;SDS011;57491;42.694;23.314;2023-07-31T08:07:46;9.35;;;5.50;;
70126;SDS011;57491;42.694;23.314;2023-07-31T08:10:13;7.07;;;4.82;;
70126;SDS011;57491;42.694;23.314;2023-07-31T08:12:40;12.13;;;5.95;;
70126;SDS011;57491;42.694;23.314;2023-07-31T08:15:07;4.50;;;4.05;;
70126;SDS011;57491;42.694;23.314;2023-07-31T08:17:36;5.47;;;4.75;;
70126;SDS011;57491;42.694;23.314;2023-07-31T08:20:03;6.55;;;4.18;;
70126;SDS011;57491;42.694;23.314;2023-07-31T08:22:31;5.93;;;4.95;;
70126;SDS011;57491;42.694;23.314;2023-07-31T08:24:58;6.00;;;4.55;;
70126;SDS011;57491;42.694;23.314;2023-07-31T08:27:25;6.40;;;5.65;;
70126;SDS011;57491;42.694;23.314;2023-07-31T08:29:52;7.90;;;4.50;;
70126;SDS011;57491;42.694;23.314;2023-07-31T08:32:20;8.60;;;5.40;;
70126;SDS011;57491;42.694;23.314;2023-07-31T08:34:48;8.00;;;4.75;;
70126;SDS011;57491;42.694;23.314;2023-07-31T08:37:15;4.95;;;4.53;;
70126;SDS011;57491;42.694;23.314;2023-07-31T08:39:42;9.48;;;6.78;;
70126;SDS011;57491;42.694;23.314;2023-07-31T08:42:09;7.25;;;4.90;;
70126;SDS011;57491;42.694;23.314;2023-07-31T08:44:36;6.43;;;4.60;;
70126;SDS011;57491;42.694;23.314;2023-07-31T08:47:05;5.93;;;3.75;;
70126;SDS011;57491;42.694;23.314;2023-07-31T08:49:33;5.68;;;3.92;;
70126;SDS011;57491;42.694;23.314;2023-07-31T08:52:03;5.43;;;4.32;;
70126;SDS011;57491;42.694;23.314;2023-07-31T08:54:30;7.00;;;3.90;;
70126;SDS011;57491;42.694;23.314;2023-07-31T08:56:58;5.45;;;4.32;;
70126;SDS011;57491;42.694;23.314;2023-07-31T08:59:26;4.68;;;4.10;;
70126;SDS011;57491;42.694;23.314;2023-07-31T09:01:55;7.40;;;4.40;;
70126;SDS011;57491;42.694;23.314;2023-07-31T09:04:25;8.23;;;6.13;;
70126;SDS011;57491;42.694;23.314;2023-07-31T09:06:54;7.13;;;4.65;;
70126;SDS011;57491;42.694;23.314;2023-07-31T09:09:28;4.82;;;4.20;;
70126;SDS011;57491;42.694;23.314;2023-07-31T09:11:55;7.70;;;4.70;;
70126;SDS011;57491;42.694;23.314;2023-07-31T09:14:24;7.07;;;5.35;;
70126;SDS011;57491;42.694;23.314;2023-07-31T09:16:52;4.57;;;4.10;;
70126;SDS011;57491;42.694;23.314;2023-07-31T09:19:26;5.93;;;4.47;;
70126;SDS011;57491;42.694;23.314;2023-07-31T09:21:56;6.10;;;4.13;;
70126;SDS011;57491;42.694;23.314;2023-07-31T09:24:29;4.80;;;4.13;;
70126;SDS011;57491;42.694;23.314;2023-07-31T09:26:58;5.15;;;4.32;;
70126;SDS011;57491;42.694;23.314;2023-07-31T09:29:27;6.32;;;5.13;;
70126;SDS011;57491;42.694;23.314;2023-07-31T09:31:56;3.75;;;3.35;;
70126;SDS011;57491;42.694;23.314;2023-07-31T09:36:57;5.00;;;4.07;;
70126;SDS011;57491;42.694;23.314;2023-07-31T09:39:29;3.92;;;3.53;;
70126;SDS011;57491;42.694;23.314;2023-07-31T09:41:56;11.57;;;5.43;;
70126;SDS011;57491;42.694;23.314;2023-07-31T09:44:36;5.30;;;4.60;;
70126;SDS011;57491;42.694;23.314;2023-07-31T09:47:04;4.38;;;3.50;;
70126;SDS011;57491;42.694;23.314;2023-07-31T09:49:31;6.20;;;3.75;;
70126;SDS011;57491;42.694;23.314;2023-07-31T09:51:59;4.72;;;3.50;;
70126;SDS011;57491;42.694;23.314;2023-07-31T09:54:26;7.13;;;3.55;;
70126;SDS011;57491;42.694;23.314;2023-07-31T09:56:54;3.50;;;3.17;;
70126;SDS011;57491;42.694;23.314;2023-07-31T09:59:25;3.08;;;2.80;;
70126;SDS011;57491;42.694;23.314;2023-07-31T10:01:52;7.85;;;3.78;;
70126;SDS011;57491;42.694;23.314;2023-07-31T10:04:21;10.95;;;5.25;;
70126;SDS011;57491;42.694;23.314;2023-07-31T10:06:55;8.40;;;3.90;;
70126;SDS011;57491;42.694;23.314;2023-07-31T10:09:26;3.65;;;3.30;;
70126;SDS011;57491;42.694;23.314;2023-07-31T10:12:00;11.52;;;5.88;;
70126;SDS011;57491;42.694;23.314;2023-07-31T10:14:30;8.88;;;4.18;;
70126;SDS011;57491;42.694;23.314;2023-07-31T10:16:58;4.75;;;3.45;;
70126;SDS011;57491;42.694;23.314;2023-07-31T10:19:26;3.88;;;3.00;;
70126;SDS011;57491;42.694;23.314;2023-07-31T10:21:53;3.40;;;3.08;;
70126;SDS011;57491;42.694;23.314;2023-07-31T10:24:22;3.83;;;3.45;;
70126;SDS011;57491;42.694;23.314;2023-07-31T10:26:51;4.32;;;3.17;;
70126;SDS011;57491;42.694;23.314;2023-07-31T10:29:21;5.10;;;3.15;;
70126;SDS011;57491;42.694;23.314;2023-07-31T10:31:49;4.70;;;3.08;;
70126;SDS011;57491;42.694;23.314;2023-07-31T10:34:18;3.00;;;2.70;;
70126;SDS011;57491;42.694;23.314;2023-07-31T10:36:45;3.30;;;3.00;;
70126;SDS011;57491;42.694;23.314;2023-07-31T10:41:54;4.22;;;3.40;;
70126;SDS011;57491;42.694;23.314;2023-07-31T10:44:22;3.20;;;2.83;;
70126;SDS011;57491;42.694;23.314;2023-07-31T10:46:49;4.57;;;3.38;;
70126;SDS011;57491;42.694;23.314;2023-07-31T10:49:21;3.85;;;3.55;;
70126;SDS011;57491;42.694;23.314;2023-07-31T10:51:48;6.45;;;5.80;;
70126;SDS011;57491;42.694;23.314;2023-07-31T10:54:15;2.92;;;2.42;;
70126;SDS011;57491;42.694;23.314;2023-07-31T10:56:44;3.40;;;2.70;;
70126;SDS011;57491;42.694;23.314;2023-07-31T10:59:12;3.10;;;2.80;;
70126;SDS011;57491;42.694;23.314;2023-07-31T11:01:53;5.15;;;3.50;;
70126;SDS011;57491;42.694;23.314;2023-07-31T11:04:23;6.97;;;3.00;;
70126;SDS011;57491;42.694;23.314;2023-07-31T11:06:55;4.18;;;2.38;;
70126;SDS011;57491;42.694;23.314;2023-07-31T11:09:24;4.53;;;2.90;;
70126;SDS011;57491;42.694;23.314;2023-07-31T11:11:53;4.75;;;2.90;;
70126;SDS011;57491;42.694;23.314;2023-07-31T11:14:21;3.00;;;2.75;;
70126;SDS011;57491;42.694;23.314;2023-07-31T11:16:49;3.80;;;2.75;;
70126;SDS011;57491;42.694;23.314;2023-07-31T11:19:22;4.38;;;3.55;;
70126;SDS011;57491;42.694;23.314;2023-07-31T11:21:50;5.45;;;2.85;;
70126;SDS011;57491;42.694;23.314;2023-07-31T11:24:18;5.60;;;3.85;;
70126;SDS011;57491;42.694;23.314;2023-07-31T11:26:49;3.92;;;3.17;;
70126;SDS011;57491;42.694;23.314;2023-07-31T11:29:17;7.10;;;3.92;;
70126;SDS011;57491;42.694;23.314;2023-07-31T11:31:45;5.55;;;3.15;;
70126;SDS011;57491;42.694;23.314;2023-07-31T11:34:14;5.20;;;3.03;;
70126;SDS011;57491;42.694;23.314;2023-07-31T11:36:53;9.82;;;4.82;;
70126;SDS011;57491;42.694;23.314;2023-07-31T11:39:21;4.18;;;3.22;;
70126;SDS011;57491;42.694;23.314;2023-07-31T11:44:15;4.40;;;3.35;;
70126;SDS011;57491;42.694;23.314;2023-07-31T11:46:42;3.88;;;3.45;;
70126;SDS011;57491;42.694;23.314;2023-07-31T11:49:10;7.13;;;3.78;;
70126;SDS011;57491;42.694;23.314;2023-07-31T11:51:37;4.07;;;3.72;;
70126;SDS011;57491;42.694;23.314;2023-07-31T11:54:06;4.35;;;3.20;;
70126;SDS011;57491;42.694;23.314;2023-07-31T11:56:34;5.10;;;3.60;;
70126;SDS011;57491;42.694;23.314;2023-07-31T11:59:01;4.07;;;3.67;;
70126;SDS011;57491;42.694;23.314;2023-07-31T12:01:31;5.00;;;4.50;;
70126;SDS011;57491;42.694;23.314;2023-07-31T12:03:58;6.32;;;4.25;;
70126;SDS011;57491;42.694;23.314;2023-07-31T12:06:32;4.97;;;3.88;;
70126;SDS011;57491;42.694;23.314;2023-07-31T12:09:00;4.38;;;3.97;;
70126;SDS011;57491;42.694;23.314;2023-07-31T12:11:30;5.20;;;4.70;;
70126;SDS011;57491;42.694;23.314;2023-07-31T12:13:58;6.78;;;4.55;;
70126;SDS011;57491;42.694;23.314;2023-07-31T12:16:26;5.53;;;4.93;;
70126;SDS011;57491;42.694;23.314;2023-07-31T12:18:53;6.18;;;5.65;;
70126;SDS011;57491;42.694;23.314;2023-07-31T12:21:20;6.68;;;6.00;;
70126;SDS011;57491;42.694;23.314;2023-07-31T12:23:47;6.07;;;5.35;;
70126;SDS011;57491;42.694;23.314;2023-07-31T12:26:17;7.20;;;6.53;;
70126;SDS011;57491;42.694;23.314;2023-07-31T12:28:45;6.45;;;5.68;;
70126;SDS011;57491;42.694;23.314;2023-07-31T12:31:14;6.35;;;5.75;;
70126;SDS011;57491;42.694;23.314;2023-07-31T12:33:44;6.07;;;5.20;;
70126;SDS011;57491;42.694;23.314;2023-07-31T12:36:12;5.38;;;4.88;;
70126;SDS011;57491;42.694;23.314;2023-07-31T12:38:40;6.68;;;5.28;;
70126;SDS011;57491;42.694;23.314;2023-07-31T12:41:08;6.53;;;5.57;;
70126;SDS011;57491;42.694;23.314;2023-07-31T12:43:36;7.47;;;5.38;;
70126;SDS011;57491;42.694;23.314;2023-07-31T12:46:05;7.40;;;5.47;;
70126;SDS011;57491;42.694;23.314;2023-07-31T12:48:33;6.55;;;5.82;;
70126;SDS011;57491;42.694;23.314;2023-07-31T12:51:01;7.95;;;6.30;;
70126;SDS011;57491;42.694;23.314;2023-07-31T12:53:28;6.88;;;6.18;;
70126;SDS011;57491;42.694;23.314;2023-07-31T12:55:55;6.45;;;5.93;;
70126;SDS011;57491;42.694;23.314;2023-07-31T12:58:22;9.10;;;5.65;;
70126;SDS011;57491;42.694;23.314;2023-07-31T13:00:50;6.18;;;5.68;;
70126;SDS011;57491;42.694;23.314;2023-07-31T13:03:18;7.40;;;6.30;;
70126;SDS011;57491;42.694;23.314;2023-07-31T13:05:45;10.65;;;6.50;;
70126;SDS011;57491;42.694;23.314;2023-07-31T13:08:12;7.05;;;6.35;;
70126;SDS011;57491;42.694;23.314;2023-07-31T13:10:41;7.00;;;6.35;;
70126;SDS011;57491;42.694;23.314;2023-07-31T13:13:08;8.60;;;6.40;;
70126;SDS011;57491;42.694;23.314;2023-07-31T13:15:35;7.88;;;6.20;;
70126;SDS011;57491;42.694;23.314;2023-07-31T13:18:03;7.70;;;6.47;;
70126;SDS011;57491;42.694;23.314;2023-07-31T13:20:31;10.23;;;7.28;;
70126;SDS011;57491;42.694;23.314;2023-07-31T13:22:58;12.20;;;6.93;;
70126;SDS011;57491;42.694;23.314;2023-07-31T13:25:25;6.85;;;5.95;;
70126;SDS011;57491;42.694;23.314;2023-07-31T13:27:52;6.72;;;5.25;;
70126;SDS011;57491;42.694;23.314;2023-07-31T13:30:20;5.00;;;4.60;;
70126;SDS011;57491;42.694;23.314;2023-07-31T13:32:47;6.30;;;4.90;;
70126;SDS011;57491;42.694;23.314;2023-07-31T13:35:14;6.03;;;5.47;;
70126;SDS011;57491;42.694;23.314;2023-07-31T13:37:42;6.03;;;5.43;;
70126;SDS011;57491;42.694;23.314;2023-07-31T13:40:10;5.82;;;5.32;;
70126;SDS011;57491;42.694;23.314;2023-07-31T13:42:38;9.90;;;5.53;;
70126;SDS011;57491;42.694;23.314;2023-07-31T13:45:05;6.35;;;5.47;;
70126;SDS011;57491;42.694;23.314;2023-07-31T13:47:32;6.18;;;4.78;;
70126;SDS011;57491;42.694;23.314;2023-07-31T13:54:55;5.20;;;4.65;;
70126;SDS011;57491;42.694;23.314;2023-07-31T13:57:22;6.38;;;4.55;;
70126;SDS011;57491;42.694;23.314;2023-07-31T13:59:49;5.50;;;4.70;;
70126;SDS011;57491;42.694;23.314;2023-07-31T14:07:10;4.78;;;4.38;;
70126;SDS011;57491;42.694;23.314;2023-07-31T14:12:06;5.60;;;5.07;;
70126;SDS011;57491;42.694;23.314;2023-07-31T14:14:34;5.50;;;5.00;;
70126;SDS011;57491;42.694;23.314;2023-07-31T14:17:01;6.05;;;5.45;;
70126;SDS011;57491;42.694;23.314;2023-07-31T14:19:28;7.00;;;4.63;;
70126;SDS011;57491;42.694;23.314;2023-07-31T14:21:55;6.15;;;5.63;;
70126;SDS011;57491;42.694;23.314;2023-07-31T14:24:24;5.63;;;5.00;;
70126;SDS011;57491;42.694;23.314;2023-07-31T14:26:51;5.10;;;4.70;;
70126;SDS011;57491;42.694;23.314;2023-07-31T14:29:20;5.65;;;4.90;;
70126;SDS011;57491;42.694;23.314;2023-07-31T14:31:47;5.40;;;4.90;;
70126;SDS011;57491;42.694;23.314;2023-07-31T14:34:14;5.13;;;4.68;;
70126;SDS011;57491;42.694;23.314;2023-07-31T14:36:43;5.57;;;4.72;;
70126;SDS011;57491;42.694;23.314;2023-07-31T14:39:11;6.00;;;4.50;;
70126;SDS011;57491;42.694;23.314;2023-07-31T14:41:38;6.38;;;5.43;;
70126;SDS011;57491;42.694;23.314;2023-07-31T14:44:05;5.15;;;4.72;;
70126;SDS011;57491;42.694;23.314;2023-07-31T14:46:34;8.05;;;5.10;;
70126;SDS011;57491;42.694;23.314;2023-07-31T14:49:01;5.25;;;4.65;;
70126;SDS011;57491;42.694;23.314;2023-07-31T14:51:28;5.95;;;4.97;;
70126;SDS011;57491;42.694;23.314;2023-07-31T14:53:55;7.85;;;5.28;;
70126;SDS011;57491;42.694;23.314;2023-07-31T14:56:22;7.60;;;5.20;;
70126;SDS011;57491;42.694;23.314;2023-07-31T14:58:50;5.05;;;4.55;;
70126;SDS011;57491;42.694;23.314;2023-07-31T15:01:17;5.20;;;4.72;;
70126;SDS011;57491;42.694;23.314;2023-07-31T15:03:45;6.70;;;4.80;;
70126;SDS011;57491;42.694;23.314;2023-07-31T15:06:12;6.70;;;5.20;;
70126;SDS011;57491;42.694;23.314;2023-07-31T15:08:40;4.72;;;4.07;;
70126;SDS011;57491;42.694;23.314;2023-07-31T15:11:07;5.20;;;4.30;;
70126;SDS011;57491;42.694;23.314;2023-07-31T15:13:36;6.93;;;3.88;;